sensor_id;sensor_type;location;lat;lon;timestamp;P1;durP1;ratioP1;P2;durP2;ratioP2
51190;SDS011;37253;48.736;9.294;2023-06-24T00:00:37;3.80;;;2.63;;
51190;SDS011;37253;48.736;9.294;2023-06-24T00:02:37;4.07;;;2.65;;
51190;SDS011;37253;48.736;9.294;2023-06-24T00:04:38;2.67;;;2.38;;
51190;SDS011;37253;48.736;9.294;2023-06-24T00:06:39;5.28;;;2.55;;
51190;SDS011;37253;48.736;9.294;2023-06-24T00:08:39;3.03;;;2.72;;
51190;SDS011;37253;48.736;9.294;2023-06-24T00:10:40;4.05;;;2.58;;
51190;SDS011;37253;48.736;9.294;2023-06-24T00:12:40;2.72;;;2.42;;
51190;SDS011;37253;48.736;9.294;2023-06-24T00:14:41;4.65;;;2.60;;
51190;SDS011;37253;48.736;9.294;2023-06-24T00:16:41;3.70;;;2.83;;
51190;SDS011;37253;48.736;9.294;2023-06-24T00:18:41;3.90;;;2.28;;
51190;SDS011;37253;48.736;9.294;2023-06-24T00:20:42;3.10;;;2.67;;
51190;SDS011;37253;48.736;9.294;2023-06-24T00:22:43;3.85;;;2.78;;
51190;SDS011;37253;48.736;9.294;2023-06-24T00:24:44;3.55;;;2.72;;
51190;SDS011;37253;48.736;9.294;2023-06-24T00:26:48;3.47;;;2.83;;
51190;SDS011;37253;48.736;9.294;2023-06-24T00:28:48;4.95;;;2.63;;
51190;SDS011;37253;48.736;9.294;2023-06-24T00:30:49;3.05;;;2.47;;
51190;SDS011;37253;48.736;9.294;2023-06-24T00:32:49;3.05;;;2.40;;
51190;SDS011;37253;48.736;9.294;2023-06-24T00:34:49;3.47;;;1.98;;
51190;SDS011;37253;48.736;9.294;2023-06-24T00:36:50;2.75;;;2.20;;
51190;SDS011;37253;48.736;9.294;2023-06-24T00:38:51;3.08;;;2.47;;
51190;SDS011;37253;48.736;9.294;2023-06-24T00:40:51;2.70;;;2.50;;
51190;SDS011;37253;48.736;9.294;2023-06-24T00:42:51;3.90;;;2.80;;
51190;SDS011;37253;48.736;9.294;2023-06-24T00:44:52;3.10;;;2.60;;
51190;SDS011;37253;48.736;9.294;2023-06-24T00:46:53;3.30;;;2.53;;
51190;SDS011;37253;48.736;9.294;2023-06-24T00:48:54;6.32;;;2.88;;
51190;SDS011;37253;48.736;9.294;2023-06-24T00:50:55;3.03;;;2.35;;
51190;SDS011;37253;48.736;9.294;2023-06-24T00:52:58;3.58;;;2.92;;
51190;SDS011;37253;48.736;9.294;2023-06-24T00:54:58;3.05;;;2.13;;
51190;SDS011;37253;48.736;9.294;2023-06-24T00:56:59;3.28;;;2.75;;
51190;SDS011;37253;48.736;9.294;2023-06-24T00:59:01;5.25;;;2.47;;
51190;SDS011;37253;48.736;9.294;2023-06-24T01:01:02;4.47;;;2.85;;
51190;SDS011;37253;48.736;9.294;2023-06-24T01:03:03;2.70;;;2.38;;
51190;SDS011;37253;48.736;9.294;2023-06-24T01:05:04;3.05;;;2.75;;
51190;SDS011;37253;48.736;9.294;2023-06-24T01:07:06;2.40;;;2.20;;
51190;SDS011;37253;48.736;9.294;2023-06-24T01:09:07;2.72;;;2.28;;
51190;SDS011;37253;48.736;9.294;2023-06-24T01:11:07;3.15;;;2.85;;
51190;SDS011;37253;48.736;9.294;2023-06-24T01:13:08;3.97;;;2.97;;
51190;SDS011;37253;48.736;9.294;2023-06-24T01:15:08;2.58;;;2.38;;
51190;SDS011;37253;48.736;9.294;2023-06-24T01:17:13;2.60;;;2.40;;
51190;SDS011;37253;48.736;9.294;2023-06-24T01:28:23;3.80;;;2.60;;
51190;SDS011;37253;48.736;9.294;2023-06-24T01:32:53;3.17;;;2.58;;
51190;SDS011;37253;48.736;9.294;2023-06-24T01:35:08;4.00;;;2.67;;
51190;SDS011;37253;48.736;9.294;2023-06-24T01:37:22;2.72;;;2.33;;
51190;SDS011;37253;48.736;9.294;2023-06-24T01:39:29;3.67;;;2.75;;
51190;SDS011;37253;48.736;9.294;2023-06-24T01:41:34;2.72;;;2.10;;
51190;SDS011;37253;48.736;9.294;2023-06-24T01:43:53;2.90;;;2.60;;
51190;SDS011;37253;48.736;9.294;2023-06-24T01:45:53;2.95;;;2.20;;
51190;SDS011;37253;48.736;9.294;2023-06-24T01:47:59;3.17;;;2.55;;
51190;SDS011;37253;48.736;9.294;2023-06-24T01:50:01;3.67;;;2.90;;
51190;SDS011;37253;48.736;9.294;2023-06-24T01:52:03;3.78;;;2.78;;
51190;SDS011;37253;48.736;9.294;2023-06-24T01:54:06;4.20;;;2.65;;
51190;SDS011;37253;48.736;9.294;2023-06-24T01:56:07;4.35;;;2.53;;
51190;SDS011;37253;48.736;9.294;2023-06-24T01:58:09;2.90;;;2.35;;
51190;SDS011;37253;48.736;9.294;2023-06-24T02:00:12;3.30;;;2.45;;
51190;SDS011;37253;48.736;9.294;2023-06-24T02:02:12;4.43;;;2.50;;
51190;SDS011;37253;48.736;9.294;2023-06-24T02:04:13;3.92;;;2.92;;
51190;SDS011;37253;48.736;9.294;2023-06-24T02:06:14;2.63;;;2.35;;
51190;SDS011;37253;48.736;9.294;2023-06-24T02:08:15;3.10;;;2.80;;
51190;SDS011;37253;48.736;9.294;2023-06-24T02:10:16;2.90;;;2.65;;
51190;SDS011;37253;48.736;9.294;2023-06-24T02:12:18;2.90;;;2.60;;
51190;SDS011;37253;48.736;9.294;2023-06-24T02:14:19;2.85;;;2.50;;
51190;SDS011;37253;48.736;9.294;2023-06-24T02:16:19;2.83;;;2.63;;
51190;SDS011;37253;48.736;9.294;2023-06-24T02:18:20;2.33;;;2.13;;
51190;SDS011;37253;48.736;9.294;2023-06-24T02:20:23;3.03;;;2.63;;
51190;SDS011;37253;48.736;9.294;2023-06-24T02:22:27;2.53;;;2.30;;
51190;SDS011;37253;48.736;9.294;2023-06-24T02:24:27;3.15;;;2.85;;
51190;SDS011;37253;48.736;9.294;2023-06-24T02:26:28;3.70;;;2.47;;
51190;SDS011;37253;48.736;9.294;2023-06-24T02:28:29;3.55;;;2.70;;
51190;SDS011;37253;48.736;9.294;2023-06-24T02:30:29;4.28;;;2.60;;
51190;SDS011;37253;48.736;9.294;2023-06-24T02:32:30;3.20;;;2.63;;
51190;SDS011;37253;48.736;9.294;2023-06-24T02:34:30;4.80;;;2.63;;
51190;SDS011;37253;48.736;9.294;2023-06-24T02:36:31;3.63;;;2.50;;
51190;SDS011;37253;48.736;9.294;2023-06-24T02:38:31;4.40;;;2.55;;
51190;SDS011;37253;48.736;9.294;2023-06-24T02:40:31;2.55;;;2.30;;
51190;SDS011;37253;48.736;9.294;2023-06-24T02:42:32;2.33;;;2.13;;
51190;SDS011;37253;48.736;9.294;2023-06-24T02:44:32;3.75;;;2.35;;
51190;SDS011;37253;48.736;9.294;2023-06-24T02:46:33;3.85;;;2.50;;
51190;SDS011;37253;48.736;9.294;2023-06-24T02:48:34;4.47;;;2.40;;
51190;SDS011;37253;48.736;9.294;2023-06-24T02:50:35;4.45;;;2.90;;
51190;SDS011;37253;48.736;9.294;2023-06-24T02:52:37;3.35;;;2.95;;
51190;SDS011;37253;48.736;9.294;2023-06-24T02:54:38;3.08;;;2.78;;
51190;SDS011;37253;48.736;9.294;2023-06-24T02:56:39;3.25;;;2.72;;
51190;SDS011;37253;48.736;9.294;2023-06-24T02:58:44;3.63;;;2.95;;
51190;SDS011;37253;48.736;9.294;2023-06-24T03:00:45;2.90;;;2.50;;
51190;SDS011;37253;48.736;9.294;2023-06-24T03:02:45;3.28;;;2.53;;
51190;SDS011;37253;48.736;9.294;2023-06-24T03:04:46;2.92;;;2.63;;
51190;SDS011;37253;48.736;9.294;2023-06-24T03:06:47;3.40;;;2.72;;
51190;SDS011;37253;48.736;9.294;2023-06-24T03:08:49;3.03;;;2.55;;
51190;SDS011;37253;48.736;9.294;2023-06-24T03:10:55;7.38;;;2.90;;
51190;SDS011;37253;48.736;9.294;2023-06-24T03:12:56;4.05;;;3.03;;
51190;SDS011;37253;48.736;9.294;2023-06-24T03:14:56;3.00;;;2.38;;
51190;SDS011;37253;48.736;9.294;2023-06-24T03:16:57;3.83;;;2.53;;
51190;SDS011;37253;48.736;9.294;2023-06-24T03:18:57;3.35;;;3.03;;
51190;SDS011;37253;48.736;9.294;2023-06-24T03:20:57;2.97;;;2.63;;
51190;SDS011;37253;48.736;9.294;2023-06-24T03:22:58;3.67;;;3.38;;
51190;SDS011;37253;48.736;9.294;2023-06-24T03:24:58;4.03;;;2.63;;
51190;SDS011;37253;48.736;9.294;2023-06-24T03:26:58;4.25;;;2.78;;
51190;SDS011;37253;48.736;9.294;2023-06-24T03:28:59;3.85;;;2.80;;
51190;SDS011;37253;48.736;9.294;2023-06-24T03:30:59;3.15;;;2.70;;
51190;SDS011;37253;48.736;9.294;2023-06-24T03:33:00;2.95;;;2.67;;
51190;SDS011;37253;48.736;9.294;2023-06-24T03:35:00;3.33;;;2.22;;
51190;SDS011;37253;48.736;9.294;2023-06-24T03:37:01;3.83;;;3.13;;
51190;SDS011;37253;48.736;9.294;2023-06-24T03:39:01;3.28;;;2.92;;
51190;SDS011;37253;48.736;9.294;2023-06-24T03:41:03;3.22;;;2.70;;
51190;SDS011;37253;48.736;9.294;2023-06-24T03:43:03;3.10;;;2.80;;
51190;SDS011;37253;48.736;9.294;2023-06-24T03:45:03;3.20;;;2.63;;
51190;SDS011;37253;48.736;9.294;2023-06-24T03:47:04;2.90;;;2.60;;
51190;SDS011;37253;48.736;9.294;2023-06-24T03:49:04;3.50;;;2.75;;
51190;SDS011;37253;48.736;9.294;2023-06-24T03:51:05;3.50;;;2.45;;
51190;SDS011;37253;48.736;9.294;2023-06-24T03:53:05;2.97;;;2.67;;
51190;SDS011;37253;48.736;9.294;2023-06-24T03:55:06;3.97;;;2.90;;
51190;SDS011;37253;48.736;9.294;2023-06-24T03:57:07;4.93;;;3.10;;
51190;SDS011;37253;48.736;9.294;2023-06-24T03:59:08;3.38;;;2.78;;
51190;SDS011;37253;48.736;9.294;2023-06-24T04:01:09;2.60;;;2.40;;
51190;SDS011;37253;48.736;9.294;2023-06-24T04:03:09;4.45;;;3.00;;
51190;SDS011;37253;48.736;9.294;2023-06-24T04:05:10;4.07;;;2.80;;
51190;SDS011;37253;48.736;9.294;2023-06-24T04:07:10;4.40;;;2.75;;
51190;SDS011;37253;48.736;9.294;2023-06-24T04:09:10;3.95;;;3.10;;
51190;SDS011;37253;48.736;9.294;2023-06-24T04:11:11;5.68;;;3.05;;
51190;SDS011;37253;48.736;9.294;2023-06-24T04:13:11;2.78;;;2.58;;
51190;SDS011;37253;48.736;9.294;2023-06-24T04:15:12;2.92;;;2.63;;
51190;SDS011;37253;48.736;9.294;2023-06-24T04:17:12;3.05;;;2.65;;
51190;SDS011;37253;48.736;9.294;2023-06-24T04:19:12;3.03;;;2.72;;
51190;SDS011;37253;48.736;9.294;2023-06-24T04:21:13;5.10;;;2.80;;
51190;SDS011;37253;48.736;9.294;2023-06-24T04:23:14;3.13;;;2.75;;
51190;SDS011;37253;48.736;9.294;2023-06-24T04:25:15;2.85;;;2.45;;
51190;SDS011;37253;48.736;9.294;2023-06-24T04:27:15;3.47;;;2.97;;
51190;SDS011;37253;48.736;9.294;2023-06-24T04:29:16;3.40;;;2.72;;
51190;SDS011;37253;48.736;9.294;2023-06-24T04:31:16;3.67;;;2.83;;
51190;SDS011;37253;48.736;9.294;2023-06-24T04:33:16;3.10;;;2.80;;
51190;SDS011;37253;48.736;9.294;2023-06-24T04:35:17;4.68;;;3.20;;
51190;SDS011;37253;48.736;9.294;2023-06-24T04:37:17;2.65;;;2.45;;
51190;SDS011;37253;48.736;9.294;2023-06-24T04:39:18;5.82;;;3.20;;
51190;SDS011;37253;48.736;9.294;2023-06-24T04:41:18;3.55;;;3.05;;
51190;SDS011;37253;48.736;9.294;2023-06-24T04:43:19;4.07;;;3.28;;
51190;SDS011;37253;48.736;9.294;2023-06-24T04:45:19;2.90;;;2.50;;
51190;SDS011;37253;48.736;9.294;2023-06-24T04:47:21;3.47;;;2.85;;
51190;SDS011;37253;48.736;9.294;2023-06-24T04:49:21;3.47;;;3.03;;
51190;SDS011;37253;48.736;9.294;2023-06-24T04:51:21;4.20;;;3.30;;
51190;SDS011;37253;48.736;9.294;2023-06-24T04:53:22;3.65;;;2.78;;
51190;SDS011;37253;48.736;9.294;2023-06-24T04:55:22;2.97;;;2.67;;
51190;SDS011;37253;48.736;9.294;2023-06-24T04:57:24;3.20;;;2.90;;
51190;SDS011;37253;48.736;9.294;2023-06-24T04:59:26;3.60;;;3.22;;
51190;SDS011;37253;48.736;9.294;2023-06-24T05:01:26;5.18;;;3.15;;
51190;SDS011;37253;48.736;9.294;2023-06-24T05:03:27;3.92;;;2.95;;
51190;SDS011;37253;48.736;9.294;2023-06-24T05:05:27;3.33;;;2.83;;
51190;SDS011;37253;48.736;9.294;2023-06-24T05:07:27;2.97;;;2.65;;
51190;SDS011;37253;48.736;9.294;2023-06-24T05:09:28;5.15;;;3.03;;
51190;SDS011;37253;48.736;9.294;2023-06-24T05:11:28;6.82;;;2.95;;
51190;SDS011;37253;48.736;9.294;2023-06-24T05:13:30;3.55;;;2.95;;
51190;SDS011;37253;48.736;9.294;2023-06-24T05:15:30;3.50;;;3.20;;
51190;SDS011;37253;48.736;9.294;2023-06-24T05:17:30;3.40;;;2.95;;
51190;SDS011;37253;48.736;9.294;2023-06-24T05:19:31;4.45;;;3.22;;
51190;SDS011;37253;48.736;9.294;2023-06-24T05:21:31;4.95;;;3.00;;
51190;SDS011;37253;48.736;9.294;2023-06-24T05:23:31;4.75;;;2.85;;
51190;SDS011;37253;48.736;9.294;2023-06-24T05:25:32;3.28;;;2.90;;
51190;SDS011;37253;48.736;9.294;2023-06-24T05:27:32;5.72;;;3.28;;
51190;SDS011;37253;48.736;9.294;2023-06-24T05:29:33;5.40;;;3.42;;
51190;SDS011;37253;48.736;9.294;2023-06-24T05:31:33;5.32;;;3.60;;
51190;SDS011;37253;48.736;9.294;2023-06-24T05:33:34;5.32;;;3.25;;
51190;SDS011;37253;48.736;9.294;2023-06-24T05:35:34;7.32;;;3.50;;
51190;SDS011;37253;48.736;9.294;2023-06-24T05:37:37;5.40;;;2.95;;
51190;SDS011;37253;48.736;9.294;2023-06-24T05:39:38;3.85;;;3.22;;
51190;SDS011;37253;48.736;9.294;2023-06-24T05:41:38;3.65;;;3.30;;
51190;SDS011;37253;48.736;9.294;2023-06-24T05:43:39;3.55;;;3.17;;
51190;SDS011;37253;48.736;9.294;2023-06-24T05:45:39;3.53;;;3.05;;
51190;SDS011;37253;48.736;9.294;2023-06-24T05:47:39;5.05;;;3.72;;
51190;SDS011;37253;48.736;9.294;2023-06-24T05:49:40;4.38;;;3.13;;
51190;SDS011;37253;48.736;9.294;2023-06-24T05:51:40;3.95;;;3.13;;
51190;SDS011;37253;48.736;9.294;2023-06-24T05:53:41;6.28;;;3.53;;
51190;SDS011;37253;48.736;9.294;2023-06-24T05:55:41;3.83;;;3.00;;
51190;SDS011;37253;48.736;9.294;2023-06-24T05:57:41;5.25;;;3.75;;
51190;SDS011;37253;48.736;9.294;2023-06-24T05:59:42;4.97;;;3.63;;
51190;SDS011;37253;48.736;9.294;2023-06-24T06:01:42;6.95;;;3.80;;
51190;SDS011;37253;48.736;9.294;2023-06-24T06:03:42;4.72;;;3.33;;
51190;SDS011;37253;48.736;9.294;2023-06-24T06:05:42;4.72;;;3.33;;
51190;SDS011;37253;48.736;9.294;2023-06-24T06:07:43;5.75;;;3.60;;
51190;SDS011;37253;48.736;9.294;2023-06-24T06:09:43;6.10;;;3.30;;
51190;SDS011;37253;48.736;9.294;2023-06-24T06:11:44;6.18;;;3.88;;
51190;SDS011;37253;48.736;9.294;2023-06-24T06:13:44;5.35;;;4.15;;
51190;SDS011;37253;48.736;9.294;2023-06-24T06:15:44;5.03;;;3.90;;
51190;SDS011;37253;48.736;9.294;2023-06-24T06:17:45;5.63;;;4.18;;
51190;SDS011;37253;48.736;9.294;2023-06-24T06:19:46;7.30;;;3.78;;
51190;SDS011;37253;48.736;9.294;2023-06-24T06:21:46;4.85;;;3.90;;
51190;SDS011;37253;48.736;9.294;2023-06-24T06:23:47;5.90;;;4.13;;
51190;SDS011;37253;48.736;9.294;2023-06-24T06:25:47;6.68;;;3.70;;
51190;SDS011;37253;48.736;9.294;2023-06-24T06:27:47;4.03;;;3.63;;
51190;SDS011;37253;48.736;9.294;2023-06-24T06:29:48;6.05;;;4.00;;
51190;SDS011;37253;48.736;9.294;2023-06-24T06:31:48;4.43;;;3.42;;
51190;SDS011;37253;48.736;9.294;2023-06-24T06:33:48;5.00;;;3.97;;
51190;SDS011;37253;48.736;9.294;2023-06-24T06:35:49;4.28;;;3.70;;
51190;SDS011;37253;48.736;9.294;2023-06-24T06:37:49;5.82;;;3.70;;
51190;SDS011;37253;48.736;9.294;2023-06-24T06:39:54;5.00;;;3.53;;
51190;SDS011;37253;48.736;9.294;2023-06-24T06:41:54;6.38;;;3.90;;
51190;SDS011;37253;48.736;9.294;2023-06-24T06:43:54;4.38;;;3.55;;
51190;SDS011;37253;48.736;9.294;2023-06-24T06:45:54;7.55;;;3.80;;
51190;SDS011;37253;48.736;9.294;2023-06-24T06:47:55;5.30;;;3.92;;
51190;SDS011;37253;48.736;9.294;2023-06-24T06:49:56;5.75;;;4.18;;
51190;SDS011;37253;48.736;9.294;2023-06-24T06:51:56;6.32;;;3.70;;
51190;SDS011;37253;48.736;9.294;2023-06-24T06:53:56;4.32;;;3.90;;
51190;SDS011;37253;48.736;9.294;2023-06-24T06:55:57;5.40;;;3.58;;
51190;SDS011;37253;48.736;9.294;2023-06-24T06:57:58;4.45;;;3.88;;
51190;SDS011;37253;48.736;9.294;2023-06-24T06:59:58;5.03;;;3.40;;
51190;SDS011;37253;48.736;9.294;2023-06-24T07:01:59;6.05;;;3.50;;
51190;SDS011;37253;48.736;9.294;2023-06-24T07:03:59;4.57;;;3.42;;
51190;SDS011;37253;48.736;9.294;2023-06-24T07:05:59;6.78;;;3.95;;
51190;SDS011;37253;48.736;9.294;2023-06-24T07:08:00;5.60;;;3.83;;
51190;SDS011;37253;48.736;9.294;2023-06-24T07:10:00;4.50;;;3.90;;
51190;SDS011;37253;48.736;9.294;2023-06-24T07:12:01;7.25;;;3.53;;
51190;SDS011;37253;48.736;9.294;2023-06-24T07:14:02;13.13;;;3.85;;
51190;SDS011;37253;48.736;9.294;2023-06-24T07:16:02;5.47;;;3.78;;
51190;SDS011;37253;48.736;9.294;2023-06-24T07:18:02;5.20;;;4.18;;
51190;SDS011;37253;48.736;9.294;2023-06-24T07:20:03;8.23;;;3.33;;
51190;SDS011;37253;48.736;9.294;2023-06-24T07:22:03;5.28;;;3.92;;
51190;SDS011;37253;48.736;9.294;2023-06-24T07:24:04;4.57;;;3.50;;
51190;SDS011;37253;48.736;9.294;2023-06-24T07:26:05;6.70;;;3.47;;
51190;SDS011;37253;48.736;9.294;2023-06-24T07:28:05;5.35;;;3.85;;
51190;SDS011;37253;48.736;9.294;2023-06-24T07:30:05;6.30;;;3.92;;
51190;SDS011;37253;48.736;9.294;2023-06-24T07:32:06;7.53;;;3.58;;
51190;SDS011;37253;48.736;9.294;2023-06-24T07:34:07;4.07;;;3.30;;
51190;SDS011;37253;48.736;9.294;2023-06-24T07:36:07;7.32;;;3.25;;
51190;SDS011;37253;48.736;9.294;2023-06-24T07:38:08;5.43;;;3.00;;
51190;SDS011;37253;48.736;9.294;2023-06-24T07:40:08;4.63;;;3.42;;
51190;SDS011;37253;48.736;9.294;2023-06-24T07:42:08;4.25;;;3.65;;
51190;SDS011;37253;48.736;9.294;2023-06-24T07:44:09;4.07;;;3.05;;
51190;SDS011;37253;48.736;9.294;2023-06-24T07:46:09;3.63;;;3.03;;
51190;SDS011;37253;48.736;9.294;2023-06-24T07:48:10;3.63;;;3.10;;
51190;SDS011;37253;48.736;9.294;2023-06-24T07:50:10;3.83;;;3.15;;
51190;SDS011;37253;48.736;9.294;2023-06-24T07:52:11;12.48;;;4.10;;
51190;SDS011;37253;48.736;9.294;2023-06-24T07:54:11;4.28;;;2.97;;
51190;SDS011;37253;48.736;9.294;2023-06-24T07:56:11;5.55;;;3.15;;
51190;SDS011;37253;48.736;9.294;2023-06-24T07:58:12;6.95;;;3.33;;
51190;SDS011;37253;48.736;9.294;2023-06-24T08:00:13;3.90;;;3.60;;
51190;SDS011;37253;48.736;9.294;2023-06-24T08:02:14;5.13;;;3.67;;
51190;SDS011;37253;48.736;9.294;2023-06-24T08:04:14;6.93;;;3.20;;
51190;SDS011;37253;48.736;9.294;2023-06-24T08:06:15;3.42;;;2.88;;
51190;SDS011;37253;48.736;9.294;2023-06-24T08:08:15;3.22;;;2.95;;
51190;SDS011;37253;48.736;9.294;2023-06-24T08:10:15;5.82;;;2.83;;
51190;SDS011;37253;48.736;9.294;2023-06-24T08:12:16;5.55;;;2.95;;
51190;SDS011;37253;48.736;9.294;2023-06-24T08:14:16;4.18;;;3.30;;
51190;SDS011;37253;48.736;9.294;2023-06-24T08:16:16;4.45;;;2.78;;
51190;SDS011;37253;48.736;9.294;2023-06-24T08:18:17;4.93;;;3.17;;
51190;SDS011;37253;48.736;9.294;2023-06-24T08:20:17;4.68;;;3.25;;
51190;SDS011;37253;48.736;9.294;2023-06-24T08:22:18;8.18;;;3.33;;
51190;SDS011;37253;48.736;9.294;2023-06-24T08:24:18;4.15;;;3.33;;
51190;SDS011;37253;48.736;9.294;2023-06-24T08:26:21;6.07;;;3.05;;
51190;SDS011;37253;48.736;9.294;2023-06-24T08:30:22;3.72;;;2.97;;
51190;SDS011;37253;48.736;9.294;2023-06-24T08:32:22;5.07;;;3.42;;
51190;SDS011;37253;48.736;9.294;2023-06-24T08:34:22;4.00;;;2.70;;
51190;SDS011;37253;48.736;9.294;2023-06-24T08:36:23;2.63;;;2.42;;
51190;SDS011;37253;48.736;9.294;2023-06-24T08:38:26;5.85;;;3.17;;
51190;SDS011;37253;48.736;9.294;2023-06-24T08:40:27;4.18;;;2.80;;
51190;SDS011;37253;48.736;9.294;2023-06-24T08:42:27;5.68;;;3.20;;
51190;SDS011;37253;48.736;9.294;2023-06-24T08:44:27;3.70;;;2.45;;
51190;SDS011;37253;48.736;9.294;2023-06-24T08:46:28;3.13;;;2.83;;
51190;SDS011;37253;48.736;9.294;2023-06-24T08:48:30;3.25;;;2.53;;
51190;SDS011;37253;48.736;9.294;2023-06-24T08:50:39;4.70;;;2.85;;
51190;SDS011;37253;48.736;9.294;2023-06-24T08:52:43;4.47;;;2.65;;
51190;SDS011;37253;48.736;9.294;2023-06-24T08:54:50;3.63;;;2.72;;
51190;SDS011;37253;48.736;9.294;2023-06-24T08:56:51;4.80;;;2.70;;
51190;SDS011;37253;48.736;9.294;2023-06-24T08:58:51;3.38;;;2.90;;
51190;SDS011;37253;48.736;9.294;2023-06-24T09:00:52;2.47;;;2.28;;
51190;SDS011;37253;48.736;9.294;2023-06-24T09:02:52;4.70;;;2.80;;
51190;SDS011;37253;48.736;9.294;2023-06-24T09:04:53;7.72;;;3.00;;
51190;SDS011;37253;48.736;9.294;2023-06-24T09:06:53;4.03;;;2.78;;
51190;SDS011;37253;48.736;9.294;2023-06-24T09:08:57;4.43;;;2.80;;
51190;SDS011;37253;48.736;9.294;2023-06-24T09:10:57;7.60;;;3.22;;
51190;SDS011;37253;48.736;9.294;2023-06-24T09:12:58;10.48;;;3.03;;
51190;SDS011;37253;48.736;9.294;2023-06-24T09:15:02;14.38;;;3.90;;
51190;SDS011;37253;48.736;9.294;2023-06-24T09:17:03;11.15;;;3.55;;
51190;SDS011;37253;48.736;9.294;2023-06-24T09:19:06;8.75;;;3.05;;
51190;SDS011;37253;48.736;9.294;2023-06-24T09:21:07;7.97;;;2.90;;
51190;SDS011;37253;48.736;9.294;2023-06-24T09:23:07;6.65;;;2.80;;
51190;SDS011;37253;48.736;9.294;2023-06-24T09:25:08;10.77;;;3.00;;
51190;SDS011;37253;48.736;9.294;2023-06-24T09:27:08;6.03;;;2.75;;
51190;SDS011;37253;48.736;9.294;2023-06-24T09:29:08;5.65;;;3.20;;
51190;SDS011;37253;48.736;9.294;2023-06-24T09:31:09;11.25;;;3.13;;
51190;SDS011;37253;48.736;9.294;2023-06-24T09:33:10;6.07;;;2.55;;
51190;SDS011;37253;48.736;9.294;2023-06-24T09:35:11;7.45;;;2.95;;
51190;SDS011;37253;48.736;9.294;2023-06-24T09:37:12;5.97;;;2.88;;
51190;SDS011;37253;48.736;9.294;2023-06-24T09:39:22;7.57;;;3.05;;
51190;SDS011;37253;48.736;9.294;2023-06-24T09:41:28;5.45;;;2.50;;
51190;SDS011;37253;48.736;9.294;2023-06-24T09:43:28;4.15;;;2.67;;
51190;SDS011;37253;48.736;9.294;2023-06-24T09:45:30;5.65;;;3.08;;
51190;SDS011;37253;48.736;9.294;2023-06-24T09:47:30;6.93;;;2.50;;
51190;SDS011;37253;48.736;9.294;2023-06-24T09:49:30;3.47;;;2.38;;
51190;SDS011;37253;48.736;9.294;2023-06-24T09:51:54;4.88;;;2.63;;
51190;SDS011;37253;48.736;9.294;2023-06-24T09:53:58;3.97;;;2.78;;
51190;SDS011;37253;48.736;9.294;2023-06-24T09:56:03;4.85;;;2.47;;
51190;SDS011;37253;48.736;9.294;2023-06-24T09:58:04;4.93;;;2.80;;
51190;SDS011;37253;48.736;9.294;2023-06-24T10:00:04;6.45;;;2.85;;
51190;SDS011;37253;48.736;9.294;2023-06-24T10:02:05;6.50;;;2.97;;
51190;SDS011;37253;48.736;9.294;2023-06-24T10:06:09;4.57;;;2.63;;
51190;SDS011;37253;48.736;9.294;2023-06-24T10:08:10;3.88;;;2.80;;
51190;SDS011;37253;48.736;9.294;2023-06-24T10:10:10;2.75;;;2.20;;
51190;SDS011;37253;48.736;9.294;2023-06-24T10:12:10;4.13;;;2.47;;
51190;SDS011;37253;48.736;9.294;2023-06-24T10:14:11;3.25;;;2.55;;
51190;SDS011;37253;48.736;9.294;2023-06-24T10:16:11;5.25;;;2.58;;
51190;SDS011;37253;48.736;9.294;2023-06-24T10:20:30;4.10;;;2.40;;
51190;SDS011;37253;48.736;9.294;2023-06-24T10:22:36;4.03;;;2.88;;
51190;SDS011;37253;48.736;9.294;2023-06-24T10:24:40;2.97;;;2.53;;
51190;SDS011;37253;48.736;9.294;2023-06-24T10:26:42;3.40;;;2.78;;
51190;SDS011;37253;48.736;9.294;2023-06-24T10:29:27;3.55;;;2.50;;
51190;SDS011;37253;48.736;9.294;2023-06-24T10:31:05;3.28;;;2.40;;
51190;SDS011;37253;48.736;9.294;2023-06-24T10:33:09;3.20;;;2.90;;
51190;SDS011;37253;48.736;9.294;2023-06-24T10:35:23;4.43;;;2.53;;
51190;SDS011;37253;48.736;9.294;2023-06-24T10:37:26;3.70;;;2.65;;
51190;SDS011;37253;48.736;9.294;2023-06-24T10:41:46;4.70;;;2.90;;
51190;SDS011;37253;48.736;9.294;2023-06-24T10:43:47;2.92;;;2.53;;
51190;SDS011;37253;48.736;9.294;2023-06-24T10:45:51;3.72;;;2.70;;
51190;SDS011;37253;48.736;9.294;2023-06-24T10:47:52;5.13;;;2.95;;
51190;SDS011;37253;48.736;9.294;2023-06-24T10:49:53;4.70;;;2.63;;
51190;SDS011;37253;48.736;9.294;2023-06-24T10:51:53;5.13;;;2.67;;
51190;SDS011;37253;48.736;9.294;2023-06-24T10:53:53;6.50;;;2.58;;
51190;SDS011;37253;48.736;9.294;2023-06-24T10:55:56;4.07;;;2.50;;
51190;SDS011;37253;48.736;9.294;2023-06-24T10:58:06;3.72;;;3.17;;
51190;SDS011;37253;48.736;9.294;2023-06-24T11:00:08;3.92;;;2.10;;
51190;SDS011;37253;48.736;9.294;2023-06-24T11:02:09;3.08;;;2.55;;
51190;SDS011;37253;48.736;9.294;2023-06-24T11:04:09;4.60;;;2.60;;
51190;SDS011;37253;48.736;9.294;2023-06-24T11:06:10;2.47;;;2.22;;
51190;SDS011;37253;48.736;9.294;2023-06-24T11:08:10;5.82;;;2.70;;
51190;SDS011;37253;48.736;9.294;2023-06-24T11:10:11;2.58;;;2.38;;
51190;SDS011;37253;48.736;9.294;2023-06-24T11:12:13;2.63;;;2.30;;
51190;SDS011;37253;48.736;9.294;2023-06-24T11:14:15;3.13;;;2.22;;
51190;SDS011;37253;48.736;9.294;2023-06-24T11:16:19;2.67;;;2.35;;
51190;SDS011;37253;48.736;9.294;2023-06-24T11:18:21;3.95;;;2.70;;
51190;SDS011;37253;48.736;9.294;2023-06-24T11:20:21;3.30;;;2.55;;
51190;SDS011;37253;48.736;9.294;2023-06-24T11:22:22;2.75;;;2.55;;
51190;SDS011;37253;48.736;9.294;2023-06-24T11:24:23;3.40;;;2.60;;
51190;SDS011;37253;48.736;9.294;2023-06-24T11:26:23;3.10;;;2.47;;
51190;SDS011;37253;48.736;9.294;2023-06-24T11:28:23;3.55;;;2.75;;
51190;SDS011;37253;48.736;9.294;2023-06-24T11:30:24;2.45;;;2.22;;
51190;SDS011;37253;48.736;9.294;2023-06-24T11:32:24;2.95;;;2.30;;
51190;SDS011;37253;48.736;9.294;2023-06-24T11:34:24;3.10;;;2.53;;
51190;SDS011;37253;48.736;9.294;2023-06-24T11:36:25;4.40;;;2.53;;
51190;SDS011;37253;48.736;9.294;2023-06-24T11:38:25;3.70;;;2.30;;
51190;SDS011;37253;48.736;9.294;2023-06-24T11:40:31;5.28;;;2.05;;
51190;SDS011;37253;48.736;9.294;2023-06-24T11:42:39;4.20;;;2.95;;
51190;SDS011;37253;48.736;9.294;2023-06-24T11:44:41;5.07;;;2.38;;
51190;SDS011;37253;48.736;9.294;2023-06-24T11:46:44;10.73;;;2.78;;
51190;SDS011;37253;48.736;9.294;2023-06-24T11:48:44;6.53;;;2.58;;
51190;SDS011;37253;48.736;9.294;2023-06-24T11:50:49;3.28;;;2.28;;
51190;SDS011;37253;48.736;9.294;2023-06-24T11:52:54;7.07;;;2.70;;
51190;SDS011;37253;48.736;9.294;2023-06-24T11:54:54;2.97;;;2.47;;
51190;SDS011;37253;48.736;9.294;2023-06-24T11:56:55;3.78;;;2.55;;
51190;SDS011;37253;48.736;9.294;2023-06-24T11:58:55;2.80;;;2.60;;
51190;SDS011;37253;48.736;9.294;2023-06-24T12:00:55;5.30;;;2.30;;
51190;SDS011;37253;48.736;9.294;2023-06-24T12:02:57;2.40;;;2.17;;
51190;SDS011;37253;48.736;9.294;2023-06-24T12:04:58;4.07;;;2.60;;
51190;SDS011;37253;48.736;9.294;2023-06-24T12:06:59;3.30;;;2.08;;
51190;SDS011;37253;48.736;9.294;2023-06-24T12:08:59;5.82;;;2.13;;
51190;SDS011;37253;48.736;9.294;2023-06-24T12:11:00;2.78;;;2.45;;
51190;SDS011;37253;48.736;9.294;2023-06-24T12:13:00;7.82;;;2.28;;
51190;SDS011;37253;48.736;9.294;2023-06-24T12:15:02;2.85;;;2.05;;
51190;SDS011;37253;48.736;9.294;2023-06-24T12:17:03;4.82;;;2.40;;
51190;SDS011;37253;48.736;9.294;2023-06-24T12:19:03;4.22;;;2.60;;
51190;SDS011;37253;48.736;9.294;2023-06-24T12:21:03;4.10;;;2.33;;
51190;SDS011;37253;48.736;9.294;2023-06-24T12:23:04;4.68;;;2.22;;
51190;SDS011;37253;48.736;9.294;2023-06-24T12:25:04;3.75;;;2.72;;
51190;SDS011;37253;48.736;9.294;2023-06-24T12:27:05;6.47;;;2.80;;
51190;SDS011;37253;48.736;9.294;2023-06-24T12:29:05;2.90;;;2.13;;
51190;SDS011;37253;48.736;9.294;2023-06-24T12:31:06;2.53;;;2.25;;